sensor_id;sensor_type;location;lat;lon;timestamp;temperature;humidity
40822;DHT22;26542;50.836;5.356;2023-03-14T00:01:10;11.10;99.90
40822;DHT22;26542;50.836;5.356;2023-03-14T00:03:36;11.20;99.90
40822;DHT22;26542;50.836;5.356;2023-03-14T00:06:03;11.20;99.90
40822;DHT22;26542;50.836;5.356;2023-03-14T00:08:29;11.20;99.90
40822;DHT22;26542;50.836;5.356;2023-03-14T00:10:55;11.20;99.90
40822;DHT22;26542;50.836;5.356;2023-03-14T00:13:23;11.20;99.90
40822;DHT22;26542;50.836;5.356;2023-03-14T00:15:49;11.10;99.90
40822;DHT22;26542;50.836;5.356;2023-03-14T00:18:14;11.10;99.90
40822;DHT22;26542;50.836;5.356;2023-03-14T00:20:40;11.10;99.90
40822;DHT22;26542;50.836;5.356;2023-03-14T00:23:08;11.10;99.90
40822;DHT22;26542;50.836;5.356;2023-03-14T00:25:36;11.10;99.90
40822;DHT22;26542;50.836;5.356;2023-03-14T00:28:02;11.20;99.90
40822;DHT22;26542;50.836;5.356;2023-03-14T00:30:28;11.20;99.90
40822;DHT22;26542;50.836;5.356;2023-03-14T00:32:53;11.20;99.90
40822;DHT22;26542;50.836;5.356;2023-03-14T00:35:19;11.30;99.90
40822;DHT22;26542;50.836;5.356;2023-03-14T00:37:45;11.30;99.90
40822;DHT22;26542;50.836;5.356;2023-03-14T00:40:11;11.30;99.90
40822;DHT22;26542;50.836;5.356;2023-03-14T00:42:36;11.30;99.90
40822;DHT22;26542;50.836;5.356;2023-03-14T00:45:02;11.30;99.90
40822;DHT22;26542;50.836;5.356;2023-03-14T00:47:29;11.30;99.90
40822;DHT22;26542;50.836;5.356;2023-03-14T00:49:54;11.30;99.90
40822;DHT22;26542;50.836;5.356;2023-03-14T00:52:20;11.20;99.90
40822;DHT22;26542;50.836;5.356;2023-03-14T00:54:46;11.20;99.90
40822;DHT22;26542;50.836;5.356;2023-03-14T00:57:11;11.20;99.90
40822;DHT22;26542;50.836;5.356;2023-03-14T00:59:37;11.10;99.90
40822;DHT22;26542;50.836;5.356;2023-03-14T01:02:03;11.10;99.90
40822;DHT22;26542;50.836;5.356;2023-03-14T01:04:28;11.10;99.90
40822;DHT22;26542;50.836;5.356;2023-03-14T01:06:55;11.10;99.90
40822;DHT22;26542;50.836;5.356;2023-03-14T01:09:23;11.00;99.90
40822;DHT22;26542;50.836;5.356;2023-03-14T01:11:51;11.10;99.90
40822;DHT22;26542;50.836;5.356;2023-03-14T01:14:17;11.10;99.90
40822;DHT22;26542;50.836;5.356;2023-03-14T01:16:45;11.10;99.90
40822;DHT22;26542;50.836;5.356;2023-03-14T01:19:11;11.10;99.90
40822;DHT22;26542;50.836;5.356;2023-03-14T01:21:37;11.20;99.90
40822;DHT22;26542;50.836;5.356;2023-03-14T01:24:04;11.30;99.90
40822;DHT22;26542;50.836;5.356;2023-03-14T01:26:34;11.30;99.90
40822;DHT22;26542;50.836;5.356;2023-03-14T01:29:00;11.30;99.90
40822;DHT22;26542;50.836;5.356;2023-03-14T01:31:29;11.30;99.90
40822;DHT22;26542;50.836;5.356;2023-03-14T01:33:57;11.30;99.90
40822;DHT22;26542;50.836;5.356;2023-03-14T01:36:22;11.30;99.90
40822;DHT22;26542;50.836;5.356;2023-03-14T01:38:51;11.30;99.90
40822;DHT22;26542;50.836;5.356;2023-03-14T01:41:20;11.30;99.90
40822;DHT22;26542;50.836;5.356;2023-03-14T01:43:49;11.30;99.90
40822;DHT22;26542;50.836;5.356;2023-03-14T01:59:34;11.30;99.90
40822;DHT22;26542;50.836;5.356;2023-03-14T02:02:00;11.30;99.90
40822;DHT22;26542;50.836;5.356;2023-03-14T02:04:29;11.40;99.90
40822;DHT22;26542;50.836;5.356;2023-03-14T02:07:03;11.40;99.90
40822;DHT22;26542;50.836;5.356;2023-03-14T02:09:30;11.30;99.90
40822;DHT22;26542;50.836;5.356;2023-03-14T02:11:56;11.20;99.90
40822;DHT22;26542;50.836;5.356;2023-03-14T02:14:36;11.20;99.90
40822;DHT22;26542;50.836;5.356;2023-03-14T02:17:03;11.10;99.90
40822;DHT22;26542;50.836;5.356;2023-03-14T02:27:11;10.90;99.90
40822;DHT22;26542;50.836;5.356;2023-03-14T02:29:41;10.70;99.90
40822;DHT22;26542;50.836;5.356;2023-03-14T02:32:12;10.80;99.90
40822;DHT22;26542;50.836;5.356;2023-03-14T02:34:41;10.80;99.90
40822;DHT22;26542;50.836;5.356;2023-03-14T02:37:08;10.80;99.90
40822;DHT22;26542;50.836;5.356;2023-03-14T02:39:44;10.70;99.90
40822;DHT22;26542;50.836;5.356;2023-03-14T02:42:12;10.50;99.90
40822;DHT22;26542;50.836;5.356;2023-03-14T02:47:35;10.40;99.90
40822;DHT22;26542;50.836;5.356;2023-03-14T02:50:12;10.40;99.90
40822;DHT22;26542;50.836;5.356;2023-03-14T02:52:39;10.50;99.90
40822;DHT22;26542;50.836;5.356;2023-03-14T02:55:05;10.40;99.90
40822;DHT22;26542;50.836;5.356;2023-03-14T02:57:31;10.40;99.90
40822;DHT22;26542;50.836;5.356;2023-03-14T03:00:01;10.50;99.90
40822;DHT22;26542;50.836;5.356;2023-03-14T03:02:29;10.60;99.90
40822;DHT22;26542;50.836;5.356;2023-03-14T03:04:55;10.60;99.90
40822;DHT22;26542;50.836;5.356;2023-03-14T03:07:20;10.70;99.90
40822;DHT22;26542;50.836;5.356;2023-03-14T03:09:46;10.80;99.90
40822;DHT22;26542;50.836;5.356;2023-03-14T03:12:12;10.90;99.90
40822;DHT22;26542;50.836;5.356;2023-03-14T03:14:37;10.80;99.90
40822;DHT22;26542;50.836;5.356;2023-03-14T03:17:06;10.90;99.90
40822;DHT22;26542;50.836;5.356;2023-03-14T03:19:33;10.90;99.90
40822;DHT22;26542;50.836;5.356;2023-03-14T03:22:01;10.80;99.90
40822;DHT22;26542;50.836;5.356;2023-03-14T03:24:27;10.70;99.90
40822;DHT22;26542;50.836;5.356;2023-03-14T03:26:53;10.70;99.90
40822;DHT22;26542;50.836;5.356;2023-03-14T03:29:19;10.70;99.90
40822;DHT22;26542;50.836;5.356;2023-03-14T03:31:46;10.70;99.90
40822;DHT22;26542;50.836;5.356;2023-03-14T03:34:13;10.90;99.90
40822;DHT22;26542;50.836;5.356;2023-03-14T03:36:39;10.80;99.90
40822;DHT22;26542;50.836;5.356;2023-03-14T03:39:05;10.80;99.90
40822;DHT22;26542;50.836;5.356;2023-03-14T03:41:34;10.60;99.90
40822;DHT22;26542;50.836;5.356;2023-03-14T03:43:59;10.60;99.90
40822;DHT22;26542;50.836;5.356;2023-03-14T03:46:25;10.70;99.90
40822;DHT22;26542;50.836;5.356;2023-03-14T03:48:59;10.70;99.90
40822;DHT22;26542;50.836;5.356;2023-03-14T03:51:32;10.60;99.90
40822;DHT22;26542;50.836;5.356;2023-03-14T03:53:58;10.50;99.90
40822;DHT22;26542;50.836;5.356;2023-03-14T03:56:23;10.50;99.90
40822;DHT22;26542;50.836;5.356;2023-03-14T03:58:49;10.60;99.90
40822;DHT22;26542;50.836;5.356;2023-03-14T04:01:17;10.60;99.90
40822;DHT22;26542;50.836;5.356;2023-03-14T04:03:42;10.70;99.90
40822;DHT22;26542;50.836;5.356;2023-03-14T04:06:11;10.60;99.90
40822;DHT22;26542;50.836;5.356;2023-03-14T04:08:37;10.60;99.90
40822;DHT22;26542;50.836;5.356;2023-03-14T04:11:07;10.60;99.90
40822;DHT22;26542;50.836;5.356;2023-03-14T04:13:32;10.60;99.90
40822;DHT22;26542;50.836;5.356;2023-03-14T04:16:00;10.60;99.90
40822;DHT22;26542;50.836;5.356;2023-03-14T04:18:28;10.60;99.90
40822;DHT22;26542;50.836;5.356;2023-03-14T04:20:57;10.60;99.90
40822;DHT22;26542;50.836;5.356;2023-03-14T04:23:23;10.60;99.90
40822;DHT22;26542;50.836;5.356;2023-03-14T04:25:52;10.60;99.90
40822;DHT22;26542;50.836;5.356;2023-03-14T04:28:18;10.60;99.90
40822;DHT22;26542;50.836;5.356;2023-03-14T04:30:46;10.60;99.90
40822;DHT22;26542;50.836;5.356;2023-03-14T04:33:13;10.50;99.90
40822;DHT22;26542;50.836;5.356;2023-03-14T04:35:43;10.50;99.90
40822;DHT22;26542;50.836;5.356;2023-03-14T04:38:10;10.40;99.90
40822;DHT22;26542;50.836;5.356;2023-03-14T04:40:39;10.40;99.90
40822;DHT22;26542;50.836;5.356;2023-03-14T04:43:07;10.40;99.90
40822;DHT22;26542;50.836;5.356;2023-03-14T04:45:33;10.40;99.90
40822;DHT22;26542;50.836;5.356;2023-03-14T04:47:58;10.50;99.90
40822;DHT22;26542;50.836;5.356;2023-03-14T04:50:24;10.40;99.90
40822;DHT22;26542;50.836;5.356;2023-03-14T04:52:50;10.40;99.90
40822;DHT22;26542;50.836;5.356;2023-03-14T04:55:15;10.50;99.90
40822;DHT22;26542;50.836;5.356;2023-03-14T04:57:44;10.40;99.90
40822;DHT22;26542;50.836;5.356;2023-03-14T05:00:10;10.50;99.90
40822;DHT22;26542;50.836;5.356;2023-03-14T05:02:35;10.50;99.90
40822;DHT22;26542;50.836;5.356;2023-03-14T05:05:01;10.50;99.90
40822;DHT22;26542;50.836;5.356;2023-03-14T05:07:27;10.50;99.90
40822;DHT22;26542;50.836;5.356;2023-03-14T05:09:52;10.50;99.90
40822;DHT22;26542;50.836;5.356;2023-03-14T05:12:21;10.50;99.90
40822;DHT22;26542;50.836;5.356;2023-03-14T05:14:46;10.50;99.90
40822;DHT22;26542;50.836;5.356;2023-03-14T05:17:12;10.40;99.90
40822;DHT22;26542;50.836;5.356;2023-03-14T05:19:40;10.40;99.90
40822;DHT22;26542;50.836;5.356;2023-03-14T05:22:11;10.50;99.90
40822;DHT22;26542;50.836;5.356;2023-03-14T05:24:39;10.40;99.90
40822;DHT22;26542;50.836;5.356;2023-03-14T05:27:07;10.40;99.90
40822;DHT22;26542;50.836;5.356;2023-03-14T05:29:35;10.40;99.90
40822;DHT22;26542;50.836;5.356;2023-03-14T05:32:03;10.40;99.90
40822;DHT22;26542;50.836;5.356;2023-03-14T05:34:28;10.50;99.90
40822;DHT22;26542;50.836;5.356;2023-03-14T05:36:57;10.50;99.90
40822;DHT22;26542;50.836;5.356;2023-03-14T05:39:25;10.50;99.90
40822;DHT22;26542;50.836;5.356;2023-03-14T05:41:54;10.50;99.90
40822;DHT22;26542;50.836;5.356;2023-03-14T05:44:21;10.60;99.90
40822;DHT22;26542;50.836;5.356;2023-03-14T05:46:51;10.60;99.90
40822;DHT22;26542;50.836;5.356;2023-03-14T05:49:17;10.60;99.90
40822;DHT22;26542;50.836;5.356;2023-03-14T05:51:43;10.60;99.90
40822;DHT22;26542;50.836;5.356;2023-03-14T05:54:11;10.60;99.90
40822;DHT22;26542;50.836;5.356;2023-03-14T05:56:37;10.70;99.90
40822;DHT22;26542;50.836;5.356;2023-03-14T05:59:02;10.60;99.90
40822;DHT22;26542;50.836;5.356;2023-03-14T06:01:29;10.60;99.90
40822;DHT22;26542;50.836;5.356;2023-03-14T06:03:58;10.60;99.90
40822;DHT22;26542;50.836;5.356;2023-03-14T06:09:27;10.50;99.90
40822;DHT22;26542;50.836;5.356;2023-03-14T06:11:58;10.50;99.90
40822;DHT22;26542;50.836;5.356;2023-03-14T06:14:33;10.60;99.90
40822;DHT22;26542;50.836;5.356;2023-03-14T06:16:59;10.50;99.90
40822;DHT22;26542;50.836;5.356;2023-03-14T06:19:27;10.60;99.90
40822;DHT22;26542;50.836;5.356;2023-03-14T06:21:52;10.60;99.90
40822;DHT22;26542;50.836;5.356;2023-03-14T06:24:18;10.60;99.90
40822;DHT22;26542;50.836;5.356;2023-03-14T06:26:44;10.60;99.90
40822;DHT22;26542;50.836;5.356;2023-03-14T06:29:09;10.60;99.90
40822;DHT22;26542;50.836;5.356;2023-03-14T06:31:35;10.70;99.90
40822;DHT22;26542;50.836;5.356;2023-03-14T06:34:01;10.70;99.90
40822;DHT22;26542;50.836;5.356;2023-03-14T06:36:27;10.80;99.90
40822;DHT22;26542;50.836;5.356;2023-03-14T06:38:52;10.80;99.90
40822;DHT22;26542;50.836;5.356;2023-03-14T06:41:20;10.70;99.90
40822;DHT22;26542;50.836;5.356;2023-03-14T06:43:51;10.80;99.90
40822;DHT22;26542;50.836;5.356;2023-03-14T06:46:19;10.80;99.90
40822;DHT22;26542;50.836;5.356;2023-03-14T06:48:45;10.90;99.90
40822;DHT22;26542;50.836;5.356;2023-03-14T06:51:11;11.00;99.90
40822;DHT22;26542;50.836;5.356;2023-03-14T06:53:37;11.10;99.90
40822;DHT22;26542;50.836;5.356;2023-03-14T06:56:05;11.00;99.90
40822;DHT22;26542;50.836;5.356;2023-03-14T06:58:31;11.10;99.90
40822;DHT22;26542;50.836;5.356;2023-03-14T07:00:59;11.10;99.90
40822;DHT22;26542;50.836;5.356;2023-03-14T07:03:25;11.10;99.90
40822;DHT22;26542;50.836;5.356;2023-03-14T07:05:55;11.20;99.90
40822;DHT22;26542;50.836;5.356;2023-03-14T07:08:21;11.10;99.90
40822;DHT22;26542;50.836;5.356;2023-03-14T07:10:47;11.20;99.90
40822;DHT22;26542;50.836;5.356;2023-03-14T07:13:12;11.20;99.90
40822;DHT22;26542;50.836;5.356;2023-03-14T07:15:38;11.30;99.90
40822;DHT22;26542;50.836;5.356;2023-03-14T07:18:04;11.30;99.90
40822;DHT22;26542;50.836;5.356;2023-03-14T07:20:29;11.20;99.90
40822;DHT22;26542;50.836;5.356;2023-03-14T07:22:57;11.10;99.90
40822;DHT22;26542;50.836;5.356;2023-03-14T07:25:25;11.10;99.90
40822;DHT22;26542;50.836;5.356;2023-03-14T07:27:52;11.10;99.90
40822;DHT22;26542;50.836;5.356;2023-03-14T07:30:17;11.10;99.90
40822;DHT22;26542;50.836;5.356;2023-03-14T07:32:43;11.00;99.90
40822;DHT22;26542;50.836;5.356;2023-03-14T07:35:09;10.90;99.90
40822;DHT22;26542;50.836;5.356;2023-03-14T07:37:35;10.90;99.90
40822;DHT22;26542;50.836;5.356;2023-03-14T07:40:02;10.90;99.90
40822;DHT22;26542;50.836;5.356;2023-03-14T07:42:31;10.90;99.90
40822;DHT22;26542;50.836;5.356;2023-03-14T07:44:56;11.00;99.90
40822;DHT22;26542;50.836;5.356;2023-03-14T07:47:24;11.00;99.90
40822;DHT22;26542;50.836;5.356;2023-03-14T07:49:50;11.10;99.90
40822;DHT22;26542;50.836;5.356;2023-03-14T07:52:15;11.00;99.90
40822;DHT22;26542;50.836;5.356;2023-03-14T07:54:43;11.00;99.90
40822;DHT22;26542;50.836;5.356;2023-03-14T07:57:09;11.00;99.90
40822;DHT22;26542;50.836;5.356;2023-03-14T07:59:37;11.00;99.90
40822;DHT22;26542;50.836;5.356;2023-03-14T08:02:02;10.80;99.90
40822;DHT22;26542;50.836;5.356;2023-03-14T08:04:31;10.40;99.90
40822;DHT22;26542;50.836;5.356;2023-03-14T08:06:59;10.10;99.90
40822;DHT22;26542;50.836;5.356;2023-03-14T08:09:25;9.60;99.90
40822;DHT22;26542;50.836;5.356;2023-03-14T08:11:52;9.50;99.90
40822;DHT22;26542;50.836;5.356;2023-03-14T08:14:18;9.50;99.90
40822;DHT22;26542;50.836;5.356;2023-03-14T08:16:44;9.40;99.90
40822;DHT22;26542;50.836;5.356;2023-03-14T08:19:09;9.30;99.90
40822;DHT22;26542;50.836;5.356;2023-03-14T08:21:36;9.20;99.90
40822;DHT22;26542;50.836;5.356;2023-03-14T08:24:04;9.00;99.90
40822;DHT22;26542;50.836;5.356;2023-03-14T08:26:32;8.90;99.90
40822;DHT22;26542;50.836;5.356;2023-03-14T08:28:58;8.90;99.90
40822;DHT22;26542;50.836;5.356;2023-03-14T08:31:24;8.70;99.90
40822;DHT22;26542;50.836;5.356;2023-03-14T08:33:49;8.50;99.90
40822;DHT22;26542;50.836;5.356;2023-03-14T08:36:18;8.50;99.90
40822;DHT22;26542;50.836;5.356;2023-03-14T08:38:44;8.40;99.90
40822;DHT22;26542;50.836;5.356;2023-03-14T08:41:10;8.30;99.90
40822;DHT22;26542;50.836;5.356;2023-03-14T08:43:36;8.30;99.90
40822;DHT22;26542;50.836;5.356;2023-03-14T08:46:02;8.30;99.90
40822;DHT22;26542;50.836;5.356;2023-03-14T08:48:29;8.30;99.90
40822;DHT22;26542;50.836;5.356;2023-03-14T08:51:09;8.20;99.90
40822;DHT22;26542;50.836;5.356;2023-03-14T08:53:38;8.20;99.90
40822;DHT22;26542;50.836;5.356;2023-03-14T08:56:04;8.10;99.90
40822;DHT22;26542;50.836;5.356;2023-03-14T08:58:38;8.20;99.90
40822;DHT22;26542;50.836;5.356;2023-03-14T09:01:08;8.20;99.90
40822;DHT22;26542;50.836;5.356;2023-03-14T09:03:34;8.20;99.90
40822;DHT22;26542;50.836;5.356;2023-03-14T09:06:05;8.30;99.90
40822;DHT22;26542;50.836;5.356;2023-03-14T09:08:30;8.20;99.90
40822;DHT22;26542;50.836;5.356;2023-03-14T09:10:56;8.30;99.90
40822;DHT22;26542;50.836;5.356;2023-03-14T09:13:25;8.40;99.90
40822;DHT22;26542;50.836;5.356;2023-03-14T09:15:54;8.40;99.90
40822;DHT22;26542;50.836;5.356;2023-03-14T09:18:21;8.40;99.90
40822;DHT22;26542;50.836;5.356;2023-03-14T09:20:49;8.50;99.90
40822;DHT22;26542;50.836;5.356;2023-03-14T09:23:15;8.40;99.90
40822;DHT22;26542;50.836;5.356;2023-03-14T09:25:44;8.60;99.90
40822;DHT22;26542;50.836;5.356;2023-03-14T09:28:12;8.60;99.90
40822;DHT22;26542;50.836;5.356;2023-03-14T09:30:41;8.70;99.90
40822;DHT22;26542;50.836;5.356;2023-03-14T09:33:09;8.70;99.90
40822;DHT22;26542;50.836;5.356;2023-03-14T09:35:36;8.70;99.90
40822;DHT22;26542;50.836;5.356;2023-03-14T09:38:04;8.80;99.90
40822;DHT22;26542;50.836;5.356;2023-03-14T09:40:34;8.80;99.90
40822;DHT22;26542;50.836;5.356;2023-03-14T09:43:03;8.80;99.90
40822;DHT22;26542;50.836;5.356;2023-03-14T09:45:35;8.90;99.90
40822;DHT22;26542;50.836;5.356;2023-03-14T09:48:03;8.80;99.90
40822;DHT22;26542;50.836;5.356;2023-03-14T09:50:41;8.70;99.90
40822;DHT22;26542;50.836;5.356;2023-03-14T09:53:13;8.70;99.90
40822;DHT22;26542;50.836;5.356;2023-03-14T09:55:40;8.70;99.90
40822;DHT22;26542;50.836;5.356;2023-03-14T09:58:16;8.70;99.90
40822;DHT22;26542;50.836;5.356;2023-03-14T10:00:44;8.80;99.90
40822;DHT22;26542;50.836;5.356;2023-03-14T10:05:42;8.70;99.90
40822;DHT22;26542;50.836;5.356;2023-03-14T10:08:11;8.70;99.90
40822;DHT22;26542;50.836;5.356;2023-03-14T10:10:37;8.70;99.90
40822;DHT22;26542;50.836;5.356;2023-03-14T10:13:23;8.60;99.90
40822;DHT22;26542;50.836;5.356;2023-03-14T10:16:00;8.60;99.90
40822;DHT22;26542;50.836;5.356;2023-03-14T10:18:29;8.50;99.90
40822;DHT22;26542;50.836;5.356;2023-03-14T10:21:26;8.40;99.90
40822;DHT22;26542;50.836;5.356;2023-03-14T10:23:50;8.30;99.90
40822;DHT22;26542;50.836;5.356;2023-03-14T10:26:18;8.30;99.90
40822;DHT22;26542;50.836;5.356;2023-03-14T10:28:52;8.50;99.90
40822;DHT22;26542;50.836;5.356;2023-03-14T10:31:27;8.60;99.90
40822;DHT22;26542;50.836;5.356;2023-03-14T10:34:01;8.70;99.90
40822;DHT22;26542;50.836;5.356;2023-03-14T10:36:32;8.80;99.90
40822;DHT22;26542;50.836;5.356;2023-03-14T10:41:50;8.80;99.90
40822;DHT22;26542;50.836;5.356;2023-03-14T10:44:23;8.60;99.90
40822;DHT22;26542;50.836;5.356;2023-03-14T10:46:59;8.30;99.90
40822;DHT22;26542;50.836;5.356;2023-03-14T10:49:31;7.90;99.90
40822;DHT22;26542;50.836;5.356;2023-03-14T10:52:14;7.40;99.90
40822;DHT22;26542;50.836;5.356;2023-03-14T10:54:39;7.30;99.90
40822;DHT22;26542;50.836;5.356;2023-03-14T10:57:06;7.30;99.90
40822;DHT22;26542;50.836;5.356;2023-03-14T10:59:38;7.20;99.90
40822;DHT22;26542;50.836;5.356;2023-03-14T11:05:02;7.10;99.90
40822;DHT22;26542;50.836;5.356;2023-03-14T11:15:39;7.30;99.90
40822;DHT22;26542;50.836;5.356;2023-03-14T11:21:01;7.30;99.90
40822;DHT22;26542;50.836;5.356;2023-03-14T11:24:00;7.40;99.90
40822;DHT22;26542;50.836;5.356;2023-03-14T11:26:50;7.40;99.90
40822;DHT22;26542;50.836;5.356;2023-03-14T11:29:31;7.40;99.90
40822;DHT22;26542;50.836;5.356;2023-03-14T11:32:02;7.40;99.90
40822;DHT22;26542;50.836;5.356;2023-03-14T11:34:51;7.30;99.90
40822;DHT22;26542;50.836;5.356;2023-03-14T11:37:32;7.20;99.90
40822;DHT22;26542;50.836;5.356;2023-03-14T11:40:18;7.10;99.90
40822;DHT22;26542;50.836;5.356;2023-03-14T11:42:55;7.20;99.90
40822;DHT22;26542;50.836;5.356;2023-03-14T11:45:32;7.20;99.90
40822;DHT22;26542;50.836;5.356;2023-03-14T11:48:29;7.20;99.90
40822;DHT22;26542;50.836;5.356;2023-03-14T11:51:02;7.20;99.90
40822;DHT22;26542;50.836;5.356;2023-03-14T11:53:58;7.20;99.90
40822;DHT22;26542;50.836;5.356;2023-03-14T11:56:34;7.20;99.90
40822;DHT22;26542;50.836;5.356;2023-03-14T11:59:14;7.10;99.90
40822;DHT22;26542;50.836;5.356;2023-03-14T12:02:09;7.10;99.90
40822;DHT22;26542;50.836;5.356;2023-03-14T12:10:29;6.60;99.90
40822;DHT22;26542;50.836;5.356;2023-03-14T12:12:56;6.60;99.90
40822;DHT22;26542;50.836;5.356;2023-03-14T12:15:23;6.60;99.90
40822;DHT22;26542;50.836;5.356;2023-03-14T12:17:56;6.70;99.90
40822;DHT22;26542;50.836;5.356;2023-03-14T12:20:25;6.70;99.90
40822;DHT22;26542;50.836;5.356;2023-03-14T12:23:11;6.90;99.90
40822;DHT22;26542;50.836;5.356;2023-03-14T12:25:40;7.00;99.90
40822;DHT22;26542;50.836;5.356;2023-03-14T12:28:21;7.00;99.90
40822;DHT22;26542;50.836;5.356;2023-03-14T12:30:55;7.00;99.90
40822;DHT22;26542;50.836;5.356;2023-03-14T12:33:27;7.10;99.90
40822;DHT22;26542;50.836;5.356;2023-03-14T12:36:03;7.20;99.90
40822;DHT22;26542;50.836;5.356;2023-03-14T12:41:23;7.20;99.90
40822;DHT22;26542;50.836;5.356;2023-03-14T12:43:50;7.20;99.90
40822;DHT22;26542;50.836;5.356;2023-03-14T12:51:41;7.30;99.90
40822;DHT22;26542;50.836;5.356;2023-03-14T12:59:30;7.40;99.90
40822;DHT22;26542;50.836;5.356;2023-03-14T13:04:48;6.50;99.90
40822;DHT22;26542;50.836;5.356;2023-03-14T13:07:35;6.10;99.90
40822;DHT22;26542;50.836;5.356;2023-03-14T13:15:22;5.90;99.90
40822;DHT22;26542;50.836;5.356;2023-03-14T13:17:51;5.90;99.90
40822;DHT22;26542;50.836;5.356;2023-03-14T13:20:26;5.80;99.90
40822;DHT22;26542;50.836;5.356;2023-03-14T13:22:52;5.80;99.90
40822;DHT22;26542;50.836;5.356;2023-03-14T13:25:18;5.80;99.90
40822;DHT22;26542;50.836;5.356;2023-03-14T13:27:54;5.80;99.90
40822;DHT22;26542;50.836;5.356;2023-03-14T13:30:26;5.90;99.90
40822;DHT22;26542;50.836;5.356;2023-03-14T13:32:52;6.10;99.90
40822;DHT22;26542;50.836;5.356;2023-03-14T13:35:27;6.10;99.90
40822;DHT22;26542;50.836;5.356;2023-03-14T13:37:56;6.10;99.90
40822;DHT22;26542;50.836;5.356;2023-03-14T13:40:35;6.20;99.90
40822;DHT22;26542;50.836;5.356;2023-03-14T13:43:14;6.30;99.90
40822;DHT22;26542;50.836;5.356;2023-03-14T13:46:21;6.40;99.90
40822;DHT22;26542;50.836;5.356;2023-03-14T13:49:03;6.40;99.90
40822;DHT22;26542;50.836;5.356;2023-03-14T13:51:30;6.60;99.90
40822;DHT22;26542;50.836;5.356;2023-03-14T13:53:58;6.60;99.90
40822;DHT22;26542;50.836;5.356;2023-03-14T13:56:30;6.60;99.90
40822;DHT22;26542;50.836;5.356;2023-03-14T13:58:56;6.50;99.90
40822;DHT22;26542;50.836;5.356;2023-03-14T14:01:37;6.30;99.90
40822;DHT22;26542;50.836;5.356;2023-03-14T14:04:15;6.20;99.90
40822;DHT22;26542;50.836;5.356;2023-03-14T14:06:47;6.20;99.90
40822;DHT22;26542;50.836;5.356;2023-03-14T14:09:25;6.20;99.90
40822;DHT22;26542;50.836;5.356;2023-03-14T14:14:36;6.30;99.90
40822;DHT22;26542;50.836;5.356;2023-03-14T14:17:10;6.50;99.90
40822;DHT22;26542;50.836;5.356;2023-03-14T14:19:37;6.50;99.90
40822;DHT22;26542;50.836;5.356;2023-03-14T14:22:04;6.60;99.90
40822;DHT22;26542;50.836;5.356;2023-03-14T14:24:33;6.60;99.90
40822;DHT22;26542;50.836;5.356;2023-03-14T14:27:19;6.50;99.90
40822;DHT22;26542;50.836;5.356;2023-03-14T14:32:37;6.60;99.90
40822;DHT22;26542;50.836;5.356;2023-03-14T14:35:04;6.60;99.90
40822;DHT22;26542;50.836;5.356;2023-03-14T14:37:41;6.60;99.90
40822;DHT22;26542;50.836;5.356;2023-03-14T14:40:08;6.60;99.90
40822;DHT22;26542;50.836;5.356;2023-03-14T14:42:40;6.70;99.90
40822;DHT22;26542;50.836;5.356;2023-03-14T14:45:10;6.60;99.90
40822;DHT22;26542;50.836;5.356;2023-03-14T14:47:49;6.60;99.90
40822;DHT22;26542;50.836;5.356;2023-03-14T14:52:56;6.60;99.90
40822;DHT22;26542;50.836;5.356;2023-03-14T14:55:23;6.70;99.90
40822;DHT22;26542;50.836;5.356;2023-03-14T14:57:55;6.70;99.90
40822;DHT22;26542;50.836;5.356;2023-03-14T15:00:26;6.70;99.90
40822;DHT22;26542;50.836;5.356;2023-03-14T15:02:54;6.80;99.90
40822;DHT22;26542;50.836;5.356;2023-03-14T15:05:28;6.90;99.90
40822;DHT22;26542;50.836;5.356;2023-03-14T15:08:01;6.90;99.90
40822;DHT22;26542;50.836;5.356;2023-03-14T15:10:26;7.00;99.90
40822;DHT22;26542;50.836;5.356;2023-03-14T15:12:52;7.10;99.90
40822;DHT22;26542;50.836;5.356;2023-03-14T15:15:18;7.10;99.90
40822;DHT22;26542;50.836;5.356;2023-03-14T15:17:44;7.20;99.90
40822;DHT22;26542;50.836;5.356;2023-03-14T15:20:13;7.10;99.90
40822;DHT22;26542;50.836;5.356;2023-03-14T15:22:44;7.10;99.90
40822;DHT22;26542;50.836;5.356;2023-03-14T15:25:10;7.10;99.90
40822;DHT22;26542;50.836;5.356;2023-03-14T15:27:37;7.10;99.90
40822;DHT22;26542;50.836;5.356;2023-03-14T15:30:13;7.00;99.90
40822;DHT22;26542;50.836;5.356;2023-03-14T15:32:41;7.00;99.90
40822;DHT22;26542;50.836;5.356;2023-03-14T15:35:08;7.00;99.90
40822;DHT22;26542;50.836;5.356;2023-03-14T15:37:36;7.00;99.90
40822;DHT22;26542;50.836;5.356;2023-03-14T15:40:04;7.10;99.90
40822;DHT22;26542;50.836;5.356;2023-03-14T15:42:39;7.10;99.90
40822;DHT22;26542;50.836;5.356;2023-03-14T15:45:05;7.00;99.90
40822;DHT22;26542;50.836;5.356;2023-03-14T15:47:33;6.90;99.90
40822;DHT22;26542;50.836;5.356;2023-03-14T15:49:59;7.00;99.90
40822;DHT22;26542;50.836;5.356;2023-03-14T15:52:25;6.80;99.90
40822;DHT22;26542;50.836;5.356;2023-03-14T15:54:53;6.70;99.90
40822;DHT22;26542;50.836;5.356;2023-03-14T15:57:19;6.50;99.90
40822;DHT22;26542;50.836;5.356;2023-03-14T15:59:47;6.50;99.90
40822;DHT22;26542;50.836;5.356;2023-03-14T16:02:13;6.50;99.90
40822;DHT22;26542;50.836;5.356;2023-03-14T16:04:38;6.60;99.90
40822;DHT22;26542;50.836;5.356;2023-03-14T16:07:04;6.60;99.90
40822;DHT22;26542;50.836;5.356;2023-03-14T16:09:30;6.60;99.90
40822;DHT22;26542;50.836;5.356;2023-03-14T16:11:56;6.60;99.90
40822;DHT22;26542;50.836;5.356;2023-03-14T16:14:26;6.60;99.90
40822;DHT22;26542;50.836;5.356;2023-03-14T16:16:52;6.90;99.90
40822;DHT22;26542;50.836;5.356;2023-03-14T16:19:18;7.00;99.90
40822;DHT22;26542;50.836;5.356;2023-03-14T16:21:44;7.10;99.90
40822;DHT22;26542;50.836;5.356;2023-03-14T16:24:12;7.10;99.90
40822;DHT22;26542;50.836;5.356;2023-03-14T16:26:40;7.10;99.90
40822;DHT22;26542;50.836;5.356;2023-03-14T16:29:05;7.20;99.90
40822;DHT22;26542;50.836;5.356;2023-03-14T16:31:33;7.10;99.90
40822;DHT22;26542;50.836;5.356;2023-03-14T16:34:04;7.10;99.90
40822;DHT22;26542;50.836;5.356;2023-03-14T16:36:32;7.10;99.90
40822;DHT22;26542;50.836;5.356;2023-03-14T16:39:00;7.10;99.90
40822;DHT22;26542;50.836;5.356;2023-03-14T16:41:26;7.30;99.90
40822;DHT22;26542;50.836;5.356;2023-03-14T16:43:59;7.30;99.90
40822;DHT22;26542;50.836;5.356;2023-03-14T16:46:27;7.30;99.90
40822;DHT22;26542;50.836;5.356;2023-03-14T16:48:56;7.20;99.90
40822;DHT22;26542;50.836;5.356;2023-03-14T16:51:24;7.20;99.90
40822;DHT22;26542;50.836;5.356;2023-03-14T16:53:49;7.10;99.90
40822;DHT22;26542;50.836;5.356;2023-03-14T16:56:16;7.10;99.90
40822;DHT22;26542;50.836;5.356;2023-03-14T16:58:42;7.10;99.90
40822;DHT22;26542;50.836;5.356;2023-03-14T17:01:09;7.10;99.90
40822;DHT22;26542;50.836;5.356;2023-03-14T17:03:39;7.10;99.90
40822;DHT22;26542;50.836;5.356;2023-03-14T17:06:05;7.10;99.90
40822;DHT22;26542;50.836;5.356;2023-03-14T17:08:32;6.90;99.90
40822;DHT22;26542;50.836;5.356;2023-03-14T17:10:58;6.80;99.90